sensor_id;sensor_type;location;lat;lon;timestamp;temperature;humidity
14749;DHT22;7466;53.574;9.976;2023-07-13T00:01:55;16.20;99.90
14749;DHT22;7466;53.574;9.976;2023-07-13T00:04:23;16.20;99.90
14749;DHT22;7466;53.574;9.976;2023-07-13T00:06:53;16.20;99.90
14749;DHT22;7466;53.574;9.976;2023-07-13T00:09:39;16.10;99.90
14749;DHT22;7466;53.574;9.976;2023-07-13T00:12:25;16.10;99.90
14749;DHT22;7466;53.574;9.976;2023-07-13T00:14:56;16.10;99.90
14749;DHT22;7466;53.574;9.976;2023-07-13T00:17:24;16.10;99.90
14749;DHT22;7466;53.574;9.976;2023-07-13T00:20:19;16.00;99.90
14749;DHT22;7466;53.574;9.976;2023-07-13T00:22:48;15.90;99.90
14749;DHT22;7466;53.574;9.976;2023-07-13T00:25:15;15.90;99.90
14749;DHT22;7466;53.574;9.976;2023-07-13T00:27:42;15.90;99.90
14749;DHT22;7466;53.574;9.976;2023-07-13T00:30:12;15.80;99.90
14749;DHT22;7466;53.574;9.976;2023-07-13T00:32:38;15.80;99.90
14749;DHT22;7466;53.574;9.976;2023-07-13T00:35:06;15.70;99.90
14749;DHT22;7466;53.574;9.976;2023-07-13T00:37:33;15.70;99.90
14749;DHT22;7466;53.574;9.976;2023-07-13T00:40:03;15.70;99.90
14749;DHT22;7466;53.574;9.976;2023-07-13T00:42:30;15.70;99.90
14749;DHT22;7466;53.574;9.976;2023-07-13T00:45:01;15.70;99.90
14749;DHT22;7466;53.574;9.976;2023-07-13T00:47:28;15.70;99.90
14749;DHT22;7466;53.574;9.976;2023-07-13T00:49:55;15.70;99.90
14749;DHT22;7466;53.574;9.976;2023-07-13T00:52:21;15.80;99.90
14749;DHT22;7466;53.574;9.976;2023-07-13T00:54:57;15.70;99.90
14749;DHT22;7466;53.574;9.976;2023-07-13T00:57:26;15.80;99.90
14749;DHT22;7466;53.574;9.976;2023-07-13T00:59:58;15.90;99.90
14749;DHT22;7466;53.574;9.976;2023-07-13T01:02:32;15.90;99.90
14749;DHT22;7466;53.574;9.976;2023-07-13T01:05:00;16.00;99.90
14749;DHT22;7466;53.574;9.976;2023-07-13T01:07:28;16.00;99.90
14749;DHT22;7466;53.574;9.976;2023-07-13T01:09:54;16.10;99.90
14749;DHT22;7466;53.574;9.976;2023-07-13T01:12:21;16.10;99.90
14749;DHT22;7466;53.574;9.976;2023-07-13T01:14:57;16.10;99.90
14749;DHT22;7466;53.574;9.976;2023-07-13T01:17:23;16.10;99.90
14749;DHT22;7466;53.574;9.976;2023-07-13T01:19:50;16.10;99.90
14749;DHT22;7466;53.574;9.976;2023-07-13T01:22:19;16.10;99.90
14749;DHT22;7466;53.574;9.976;2023-07-13T01:24:50;16.10;99.90
14749;DHT22;7466;53.574;9.976;2023-07-13T01:27:24;16.00;99.90
14749;DHT22;7466;53.574;9.976;2023-07-13T01:29:52;16.00;99.90
14749;DHT22;7466;53.574;9.976;2023-07-13T01:32:29;16.00;99.90
14749;DHT22;7466;53.574;9.976;2023-07-13T01:35:03;16.00;99.90
14749;DHT22;7466;53.574;9.976;2023-07-13T01:37:31;16.00;99.90
14749;DHT22;7466;53.574;9.976;2023-07-13T01:39:58;16.00;99.90
14749;DHT22;7466;53.574;9.976;2023-07-13T01:42:43;15.90;99.90
14749;DHT22;7466;53.574;9.976;2023-07-13T01:45:10;15.90;99.90
14749;DHT22;7466;53.574;9.976;2023-07-13T01:47:37;15.80;99.90
14749;DHT22;7466;53.574;9.976;2023-07-13T01:50:04;15.80;99.90
14749;DHT22;7466;53.574;9.976;2023-07-13T01:52:32;15.80;99.90
14749;DHT22;7466;53.574;9.976;2023-07-13T01:54:59;15.80;99.90
14749;DHT22;7466;53.574;9.976;2023-07-13T01:57:25;15.80;99.90
14749;DHT22;7466;53.574;9.976;2023-07-13T01:59:52;15.70;99.90
14749;DHT22;7466;53.574;9.976;2023-07-13T02:02:19;15.70;99.90
14749;DHT22;7466;53.574;9.976;2023-07-13T02:04:46;15.70;99.90
14749;DHT22;7466;53.574;9.976;2023-07-13T02:07:12;15.70;99.90
14749;DHT22;7466;53.574;9.976;2023-07-13T02:09:41;15.70;99.90
14749;DHT22;7466;53.574;9.976;2023-07-13T02:12:09;15.70;99.90
14749;DHT22;7466;53.574;9.976;2023-07-13T02:14:35;15.70;99.90
14749;DHT22;7466;53.574;9.976;2023-07-13T02:17:02;15.70;99.90
14749;DHT22;7466;53.574;9.976;2023-07-13T02:19:29;15.70;99.90
14749;DHT22;7466;53.574;9.976;2023-07-13T02:21:56;15.70;99.90
14749;DHT22;7466;53.574;9.976;2023-07-13T02:24:22;15.60;99.90
14749;DHT22;7466;53.574;9.976;2023-07-13T02:26:50;15.60;99.90
14749;DHT22;7466;53.574;9.976;2023-07-13T02:29:17;15.60;99.90
14749;DHT22;7466;53.574;9.976;2023-07-13T02:31:44;15.60;99.90
14749;DHT22;7466;53.574;9.976;2023-07-13T02:34:10;15.60;99.90
14749;DHT22;7466;53.574;9.976;2023-07-13T02:36:37;15.60;99.90
14749;DHT22;7466;53.574;9.976;2023-07-13T02:39:05;15.60;99.90
14749;DHT22;7466;53.574;9.976;2023-07-13T02:41:32;15.60;99.90
14749;DHT22;7466;53.574;9.976;2023-07-13T02:44:02;15.60;99.90
14749;DHT22;7466;53.574;9.976;2023-07-13T02:46:29;15.60;99.90
14749;DHT22;7466;53.574;9.976;2023-07-13T02:48:56;15.60;99.90
14749;DHT22;7466;53.574;9.976;2023-07-13T02:51:22;15.60;99.90
14749;DHT22;7466;53.574;9.976;2023-07-13T02:53:49;15.50;99.90
14749;DHT22;7466;53.574;9.976;2023-07-13T02:56:16;15.60;99.90
14749;DHT22;7466;53.574;9.976;2023-07-13T02:58:43;15.60;99.90
14749;DHT22;7466;53.574;9.976;2023-07-13T03:01:11;15.60;99.90
14749;DHT22;7466;53.574;9.976;2023-07-13T03:03:38;15.50;99.90
14749;DHT22;7466;53.574;9.976;2023-07-13T03:06:05;15.50;99.90
14749;DHT22;7466;53.574;9.976;2023-07-13T03:08:33;15.50;99.90
14749;DHT22;7466;53.574;9.976;2023-07-13T03:11:00;15.50;99.90
14749;DHT22;7466;53.574;9.976;2023-07-13T03:13:27;15.50;99.90
14749;DHT22;7466;53.574;9.976;2023-07-13T03:15:54;15.50;99.90
14749;DHT22;7466;53.574;9.976;2023-07-13T03:18:22;15.50;99.90
14749;DHT22;7466;53.574;9.976;2023-07-13T03:20:50;15.50;99.90
14749;DHT22;7466;53.574;9.976;2023-07-13T03:23:18;15.50;99.90
14749;DHT22;7466;53.574;9.976;2023-07-13T03:25:45;15.50;99.90
14749;DHT22;7466;53.574;9.976;2023-07-13T03:28:12;15.60;99.90
14749;DHT22;7466;53.574;9.976;2023-07-13T03:30:39;15.50;99.90
14749;DHT22;7466;53.574;9.976;2023-07-13T03:33:06;15.60;99.90
14749;DHT22;7466;53.574;9.976;2023-07-13T03:35:34;15.50;99.90
14749;DHT22;7466;53.574;9.976;2023-07-13T03:38:00;15.50;99.90
14749;DHT22;7466;53.574;9.976;2023-07-13T03:40:28;15.60;99.90
14749;DHT22;7466;53.574;9.976;2023-07-13T03:42:54;15.50;99.90
14749;DHT22;7466;53.574;9.976;2023-07-13T03:45:21;15.50;99.90
14749;DHT22;7466;53.574;9.976;2023-07-13T03:47:48;15.50;99.90
14749;DHT22;7466;53.574;9.976;2023-07-13T03:50:14;15.60;99.90
14749;DHT22;7466;53.574;9.976;2023-07-13T03:52:42;15.60;99.90
14749;DHT22;7466;53.574;9.976;2023-07-13T03:55:09;15.50;99.90
14749;DHT22;7466;53.574;9.976;2023-07-13T03:57:36;15.60;99.90
14749;DHT22;7466;53.574;9.976;2023-07-13T04:00:05;15.60;99.90
14749;DHT22;7466;53.574;9.976;2023-07-13T04:02:33;15.60;99.90
14749;DHT22;7466;53.574;9.976;2023-07-13T04:04:59;15.70;99.90
14749;DHT22;7466;53.574;9.976;2023-07-13T04:07:27;15.70;99.90
14749;DHT22;7466;53.574;9.976;2023-07-13T04:09:55;15.80;99.90
14749;DHT22;7466;53.574;9.976;2023-07-13T04:12:21;15.80;99.90
14749;DHT22;7466;53.574;9.976;2023-07-13T04:14:48;15.80;99.90
14749;DHT22;7466;53.574;9.976;2023-07-13T04:17:15;15.90;99.90
14749;DHT22;7466;53.574;9.976;2023-07-13T04:19:41;15.90;99.90
14749;DHT22;7466;53.574;9.976;2023-07-13T04:22:08;15.90;99.90
14749;DHT22;7466;53.574;9.976;2023-07-13T04:24:35;15.90;99.90
14749;DHT22;7466;53.574;9.976;2023-07-13T04:27:04;15.90;99.90
14749;DHT22;7466;53.574;9.976;2023-07-13T04:29:31;15.90;99.90
14749;DHT22;7466;53.574;9.976;2023-07-13T04:31:58;15.90;99.90
14749;DHT22;7466;53.574;9.976;2023-07-13T04:34:25;15.90;99.90
14749;DHT22;7466;53.574;9.976;2023-07-13T04:36:52;15.90;99.90
14749;DHT22;7466;53.574;9.976;2023-07-13T04:39:18;16.00;99.90
14749;DHT22;7466;53.574;9.976;2023-07-13T04:41:46;16.00;99.90
14749;DHT22;7466;53.574;9.976;2023-07-13T04:44:14;16.00;99.90
14749;DHT22;7466;53.574;9.976;2023-07-13T04:46:42;16.10;99.90
14749;DHT22;7466;53.574;9.976;2023-07-13T04:49:09;16.10;99.90
14749;DHT22;7466;53.574;9.976;2023-07-13T04:51:36;16.10;99.90
14749;DHT22;7466;53.574;9.976;2023-07-13T04:54:03;16.20;99.90
14749;DHT22;7466;53.574;9.976;2023-07-13T04:56:30;16.30;99.90
14749;DHT22;7466;53.574;9.976;2023-07-13T04:58:57;16.30;99.90
14749;DHT22;7466;53.574;9.976;2023-07-13T05:01:25;16.40;99.90
14749;DHT22;7466;53.574;9.976;2023-07-13T05:03:52;16.50;99.90
14749;DHT22;7466;53.574;9.976;2023-07-13T05:06:20;16.50;99.90
14749;DHT22;7466;53.574;9.976;2023-07-13T05:08:47;16.60;99.90
14749;DHT22;7466;53.574;9.976;2023-07-13T05:11:14;16.60;99.90
14749;DHT22;7466;53.574;9.976;2023-07-13T05:13:41;16.60;99.90
14749;DHT22;7466;53.574;9.976;2023-07-13T05:16:08;16.70;99.90
14749;DHT22;7466;53.574;9.976;2023-07-13T05:18:36;16.70;99.90
14749;DHT22;7466;53.574;9.976;2023-07-13T05:21:05;16.70;99.90
14749;DHT22;7466;53.574;9.976;2023-07-13T05:23:33;16.70;99.90
14749;DHT22;7466;53.574;9.976;2023-07-13T05:26:01;16.90;99.90
14749;DHT22;7466;53.574;9.976;2023-07-13T05:28:30;16.80;99.90
14749;DHT22;7466;53.574;9.976;2023-07-13T05:30:58;16.80;99.90
14749;DHT22;7466;53.574;9.976;2023-07-13T05:33:25;16.80;99.90
14749;DHT22;7466;53.574;9.976;2023-07-13T05:35:53;16.90;99.90
14749;DHT22;7466;53.574;9.976;2023-07-13T05:38:20;16.80;99.90
14749;DHT22;7466;53.574;9.976;2023-07-13T05:40:47;16.80;99.90
14749;DHT22;7466;53.574;9.976;2023-07-13T05:43:15;16.80;99.90
14749;DHT22;7466;53.574;9.976;2023-07-13T05:45:41;16.70;99.90
14749;DHT22;7466;53.574;9.976;2023-07-13T05:48:08;16.70;99.90
14749;DHT22;7466;53.574;9.976;2023-07-13T05:50:35;16.70;99.90
14749;DHT22;7466;53.574;9.976;2023-07-13T05:53:04;16.60;99.90
14749;DHT22;7466;53.574;9.976;2023-07-13T05:55:31;16.70;99.90
14749;DHT22;7466;53.574;9.976;2023-07-13T05:57:58;16.60;99.90
14749;DHT22;7466;53.574;9.976;2023-07-13T06:00:25;16.60;99.90
14749;DHT22;7466;53.574;9.976;2023-07-13T06:02:52;16.70;99.90
14749;DHT22;7466;53.574;9.976;2023-07-13T06:05:19;16.70;99.90
14749;DHT22;7466;53.574;9.976;2023-07-13T06:07:46;16.60;99.90
14749;DHT22;7466;53.574;9.976;2023-07-13T06:10:14;16.60;99.90
14749;DHT22;7466;53.574;9.976;2023-07-13T06:12:40;16.60;99.90
14749;DHT22;7466;53.574;9.976;2023-07-13T06:15:08;16.60;99.90
14749;DHT22;7466;53.574;9.976;2023-07-13T06:17:35;16.70;99.90
14749;DHT22;7466;53.574;9.976;2023-07-13T06:20:02;16.80;99.90
14749;DHT22;7466;53.574;9.976;2023-07-13T06:22:28;16.70;99.90
14749;DHT22;7466;53.574;9.976;2023-07-13T06:24:55;16.70;99.90
14749;DHT22;7466;53.574;9.976;2023-07-13T06:27:23;16.70;99.90
14749;DHT22;7466;53.574;9.976;2023-07-13T06:29:50;16.70;99.90
14749;DHT22;7466;53.574;9.976;2023-07-13T06:32:17;16.80;99.90
14749;DHT22;7466;53.574;9.976;2023-07-13T06:34:43;16.80;99.90
14749;DHT22;7466;53.574;9.976;2023-07-13T06:37:11;16.90;99.90
14749;DHT22;7466;53.574;9.976;2023-07-13T06:39:37;16.90;99.90
14749;DHT22;7466;53.574;9.976;2023-07-13T06:42:05;16.90;99.90
14749;DHT22;7466;53.574;9.976;2023-07-13T06:44:33;17.00;99.90
14749;DHT22;7466;53.574;9.976;2023-07-13T06:47:00;17.10;99.90
14749;DHT22;7466;53.574;9.976;2023-07-13T06:49:29;17.00;99.90
14749;DHT22;7466;53.574;9.976;2023-07-13T06:51:56;17.00;99.90
14749;DHT22;7466;53.574;9.976;2023-07-13T06:54:23;16.90;99.90
14749;DHT22;7466;53.574;9.976;2023-07-13T06:56:50;17.10;99.90
14749;DHT22;7466;53.574;9.976;2023-07-13T06:59:17;17.20;99.90
14749;DHT22;7466;53.574;9.976;2023-07-13T07:01:45;17.20;99.90
14749;DHT22;7466;53.574;9.976;2023-07-13T07:04:12;17.30;99.90
14749;DHT22;7466;53.574;9.976;2023-07-13T07:06:38;17.30;99.90
14749;DHT22;7466;53.574;9.976;2023-07-13T07:09:05;17.20;99.90
14749;DHT22;7466;53.574;9.976;2023-07-13T07:11:32;17.40;99.90
14749;DHT22;7466;53.574;9.976;2023-07-13T07:13:59;17.60;99.90
14749;DHT22;7466;53.574;9.976;2023-07-13T07:16:26;17.70;99.90
14749;DHT22;7466;53.574;9.976;2023-07-13T07:18:54;17.70;99.90
14749;DHT22;7466;53.574;9.976;2023-07-13T07:21:20;17.70;99.90
14749;DHT22;7466;53.574;9.976;2023-07-13T07:23:48;17.70;99.90
14749;DHT22;7466;53.574;9.976;2023-07-13T07:26:15;17.80;99.90
14749;DHT22;7466;53.574;9.976;2023-07-13T07:28:42;17.80;99.90
14749;DHT22;7466;53.574;9.976;2023-07-13T07:31:09;18.10;99.90
14749;DHT22;7466;53.574;9.976;2023-07-13T07:33:36;18.30;99.90
14749;DHT22;7466;53.574;9.976;2023-07-13T07:36:04;18.50;99.90
14749;DHT22;7466;53.574;9.976;2023-07-13T07:38:31;18.50;99.90
14749;DHT22;7466;53.574;9.976;2023-07-13T07:41:02;18.60;99.90
14749;DHT22;7466;53.574;9.976;2023-07-13T07:43:29;18.70;99.90
14749;DHT22;7466;53.574;9.976;2023-07-13T07:45:56;18.60;99.90
14749;DHT22;7466;53.574;9.976;2023-07-13T07:48:23;18.60;99.90
14749;DHT22;7466;53.574;9.976;2023-07-13T07:50:50;18.60;99.90
14749;DHT22;7466;53.574;9.976;2023-07-13T07:53:28;18.80;99.90
14749;DHT22;7466;53.574;9.976;2023-07-13T07:55:57;19.10;99.90
14749;DHT22;7466;53.574;9.976;2023-07-13T07:58:23;19.30;99.90
14749;DHT22;7466;53.574;9.976;2023-07-13T08:00:50;19.00;99.90
14749;DHT22;7466;53.574;9.976;2023-07-13T08:03:17;18.90;99.90
14749;DHT22;7466;53.574;9.976;2023-07-13T08:05:44;19.00;99.90
14749;DHT22;7466;53.574;9.976;2023-07-13T08:08:10;19.50;99.90
14749;DHT22;7466;53.574;9.976;2023-07-13T08:10:40;19.70;99.90
14749;DHT22;7466;53.574;9.976;2023-07-13T08:13:06;19.90;99.90
14749;DHT22;7466;53.574;9.976;2023-07-13T08:15:33;19.90;99.90
14749;DHT22;7466;53.574;9.976;2023-07-13T08:18:00;19.80;99.90
14749;DHT22;7466;53.574;9.976;2023-07-13T08:20:27;20.00;99.90
14749;DHT22;7466;53.574;9.976;2023-07-13T08:22:53;20.20;99.90
14749;DHT22;7466;53.574;9.976;2023-07-13T08:25:20;20.10;99.90
14749;DHT22;7466;53.574;9.976;2023-07-13T08:27:49;20.10;99.90
14749;DHT22;7466;53.574;9.976;2023-07-13T08:30:16;20.20;99.90
14749;DHT22;7466;53.574;9.976;2023-07-13T08:32:43;19.80;99.90
14749;DHT22;7466;53.574;9.976;2023-07-13T08:35:10;19.60;99.90
14749;DHT22;7466;53.574;9.976;2023-07-13T08:37:38;19.60;99.90
14749;DHT22;7466;53.574;9.976;2023-07-13T08:40:08;19.50;99.90
14749;DHT22;7466;53.574;9.976;2023-07-13T08:42:39;19.60;99.90
14749;DHT22;7466;53.574;9.976;2023-07-13T08:45:22;19.70;99.90
14749;DHT22;7466;53.574;9.976;2023-07-13T08:47:52;19.90;99.90
14749;DHT22;7466;53.574;9.976;2023-07-13T08:50:23;19.80;99.90
14749;DHT22;7466;53.574;9.976;2023-07-13T08:52:52;20.10;99.90
14749;DHT22;7466;53.574;9.976;2023-07-13T08:55:22;20.10;99.90
14749;DHT22;7466;53.574;9.976;2023-07-13T08:57:56;19.90;99.90
14749;DHT22;7466;53.574;9.976;2023-07-13T09:00:46;19.70;99.90
14749;DHT22;7466;53.574;9.976;2023-07-13T09:03:20;19.70;99.90
14749;DHT22;7466;53.574;9.976;2023-07-13T09:05:52;19.90;99.90
14749;DHT22;7466;53.574;9.976;2023-07-13T09:08:40;20.30;99.90
14749;DHT22;7466;53.574;9.976;2023-07-13T09:11:18;20.80;99.90
14749;DHT22;7466;53.574;9.976;2023-07-13T09:13:53;20.80;99.90
14749;DHT22;7466;53.574;9.976;2023-07-13T09:16:25;20.40;99.90
14749;DHT22;7466;53.574;9.976;2023-07-13T09:18:56;20.40;99.90
14749;DHT22;7466;53.574;9.976;2023-07-13T09:21:29;20.20;99.90
14749;DHT22;7466;53.574;9.976;2023-07-13T09:24:00;20.50;99.90
14749;DHT22;7466;53.574;9.976;2023-07-13T09:26:29;20.50;99.90
14749;DHT22;7466;53.574;9.976;2023-07-13T09:29:09;20.20;99.90
14749;DHT22;7466;53.574;9.976;2023-07-13T09:31:43;20.10;99.90
14749;DHT22;7466;53.574;9.976;2023-07-13T09:34:13;20.20;99.90
14749;DHT22;7466;53.574;9.976;2023-07-13T09:36:40;20.90;99.90
14749;DHT22;7466;53.574;9.976;2023-07-13T09:39:13;21.20;99.90
14749;DHT22;7466;53.574;9.976;2023-07-13T09:41:47;21.10;99.90
14749;DHT22;7466;53.574;9.976;2023-07-13T09:44:18;21.20;99.90
14749;DHT22;7466;53.574;9.976;2023-07-13T09:46:55;21.10;99.90
14749;DHT22;7466;53.574;9.976;2023-07-13T09:49:24;21.30;99.90
14749;DHT22;7466;53.574;9.976;2023-07-13T09:51:58;21.50;99.90
14749;DHT22;7466;53.574;9.976;2023-07-13T09:54:26;21.60;99.90
14749;DHT22;7466;53.574;9.976;2023-07-13T09:56:56;21.10;99.90
14749;DHT22;7466;53.574;9.976;2023-07-13T09:59:26;20.90;99.90
14749;DHT22;7466;53.574;9.976;2023-07-13T10:01:54;21.00;99.90
14749;DHT22;7466;53.574;9.976;2023-07-13T10:04:28;20.70;99.90
14749;DHT22;7466;53.574;9.976;2023-07-13T10:07:05;20.70;99.90
14749;DHT22;7466;53.574;9.976;2023-07-13T10:09:32;20.40;99.90
14749;DHT22;7466;53.574;9.976;2023-07-13T10:11:59;20.50;99.90
14749;DHT22;7466;53.574;9.976;2023-07-13T10:14:26;20.90;99.90
14749;DHT22;7466;53.574;9.976;2023-07-13T10:16:59;21.40;99.90
14749;DHT22;7466;53.574;9.976;2023-07-13T10:19:31;21.70;99.90
14749;DHT22;7466;53.574;9.976;2023-07-13T10:22:01;21.90;99.90
14749;DHT22;7466;53.574;9.976;2023-07-13T10:24:32;22.30;99.90
14749;DHT22;7466;53.574;9.976;2023-07-13T10:27:02;21.90;99.90
14749;DHT22;7466;53.574;9.976;2023-07-13T10:29:35;22.10;99.90
14749;DHT22;7466;53.574;9.976;2023-07-13T10:32:09;22.20;99.90
14749;DHT22;7466;53.574;9.976;2023-07-13T10:34:36;22.60;99.90
14749;DHT22;7466;53.574;9.976;2023-07-13T10:37:05;22.70;99.90
14749;DHT22;7466;53.574;9.976;2023-07-13T10:39:35;22.70;99.90
14749;DHT22;7466;53.574;9.976;2023-07-13T10:42:05;22.80;99.90
14749;DHT22;7466;53.574;9.976;2023-07-13T10:44:35;23.00;99.90
14749;DHT22;7466;53.574;9.976;2023-07-13T10:47:06;22.90;99.90
14749;DHT22;7466;53.574;9.976;2023-07-13T10:49:34;23.00;99.90
14749;DHT22;7466;53.574;9.976;2023-07-13T10:52:03;23.00;99.90
14749;DHT22;7466;53.574;9.976;2023-07-13T10:54:31;22.60;99.90
14749;DHT22;7466;53.574;9.976;2023-07-13T10:57:15;22.40;99.90
14749;DHT22;7466;53.574;9.976;2023-07-13T10:59:43;22.00;99.90
14749;DHT22;7466;53.574;9.976;2023-07-13T11:02:23;21.90;99.90
14749;DHT22;7466;53.574;9.976;2023-07-13T11:04:53;22.10;99.90
14749;DHT22;7466;53.574;9.976;2023-07-13T11:07:22;22.40;99.90
14749;DHT22;7466;53.574;9.976;2023-07-13T11:09:51;22.80;99.90
14749;DHT22;7466;53.574;9.976;2023-07-13T11:12:49;22.80;99.90
14749;DHT22;7466;53.574;9.976;2023-07-13T11:15:29;22.90;99.90
14749;DHT22;7466;53.574;9.976;2023-07-13T11:18:02;22.90;99.90
14749;DHT22;7466;53.574;9.976;2023-07-13T11:20:38;23.20;99.90
14749;DHT22;7466;53.574;9.976;2023-07-13T11:23:29;23.30;99.90
14749;DHT22;7466;53.574;9.976;2023-07-13T11:25:57;22.70;99.90
14749;DHT22;7466;53.574;9.976;2023-07-13T11:28:31;22.70;99.90
14749;DHT22;7466;53.574;9.976;2023-07-13T11:31:14;22.70;99.90
14749;DHT22;7466;53.574;9.976;2023-07-13T11:33:58;23.10;99.90
14749;DHT22;7466;53.574;9.976;2023-07-13T11:36:32;23.50;99.90
14749;DHT22;7466;53.574;9.976;2023-07-13T11:39:04;23.40;99.90
14749;DHT22;7466;53.574;9.976;2023-07-13T11:41:35;23.50;99.90
14749;DHT22;7466;53.574;9.976;2023-07-13T11:44:12;23.70;99.90
14749;DHT22;7466;53.574;9.976;2023-07-13T11:46:43;23.30;99.90
14749;DHT22;7466;53.574;9.976;2023-07-13T11:49:15;23.20;99.90
14749;DHT22;7466;53.574;9.976;2023-07-13T11:51:42;22.90;99.90
14749;DHT22;7466;53.574;9.976;2023-07-13T11:54:23;22.70;99.90
14749;DHT22;7466;53.574;9.976;2023-07-13T11:56:53;22.40;99.90
14749;DHT22;7466;53.574;9.976;2023-07-13T11:59:20;22.20;99.90
14749;DHT22;7466;53.574;9.976;2023-07-13T12:01:52;22.30;99.90
14749;DHT22;7466;53.574;9.976;2023-07-13T12:04:24;22.30;99.90
14749;DHT22;7466;53.574;9.976;2023-07-13T12:06:56;22.40;99.90
14749;DHT22;7466;53.574;9.976;2023-07-13T12:09:26;22.60;99.90
14749;DHT22;7466;53.574;9.976;2023-07-13T12:11:53;22.40;99.90
14749;DHT22;7466;53.574;9.976;2023-07-13T12:14:20;22.20;99.90
14749;DHT22;7466;53.574;9.976;2023-07-13T12:16:50;22.00;99.90
14749;DHT22;7466;53.574;9.976;2023-07-13T12:19:23;21.60;99.90
14749;DHT22;7466;53.574;9.976;2023-07-13T12:21:52;20.40;99.90
14749;DHT22;7466;53.574;9.976;2023-07-13T12:24:21;18.90;99.90
14749;DHT22;7466;53.574;9.976;2023-07-13T12:26:53;17.80;99.90
14749;DHT22;7466;53.574;9.976;2023-07-13T12:29:20;17.50;99.90
14749;DHT22;7466;53.574;9.976;2023-07-13T12:31:48;17.40;99.90
14749;DHT22;7466;53.574;9.976;2023-07-13T12:34:18;17.40;99.90
14749;DHT22;7466;53.574;9.976;2023-07-13T12:36:49;17.40;99.90
14749;DHT22;7466;53.574;9.976;2023-07-13T12:39:19;17.60;99.90
14749;DHT22;7466;53.574;9.976;2023-07-13T12:41:47;17.80;99.90
14749;DHT22;7466;53.574;9.976;2023-07-13T12:44:16;18.40;99.90
14749;DHT22;7466;53.574;9.976;2023-07-13T12:46:58;18.90;99.90
14749;DHT22;7466;53.574;9.976;2023-07-13T12:49:28;19.20;99.90
14749;DHT22;7466;53.574;9.976;2023-07-13T12:51:58;19.50;99.90
14749;DHT22;7466;53.574;9.976;2023-07-13T12:54:27;19.80;99.90
14749;DHT22;7466;53.574;9.976;2023-07-13T12:56:55;20.10;99.90
14749;DHT22;7466;53.574;9.976;2023-07-13T12:59:26;20.00;99.90
14749;DHT22;7466;53.574;9.976;2023-07-13T13:01:55;19.90;99.90
14749;DHT22;7466;53.574;9.976;2023-07-13T13:04:22;19.60;99.90
14749;DHT22;7466;53.574;9.976;2023-07-13T13:07:01;19.50;99.90
14749;DHT22;7466;53.574;9.976;2023-07-13T13:09:28;18.80;99.90
14749;DHT22;7466;53.574;9.976;2023-07-13T13:11:55;18.50;99.90
14749;DHT22;7466;53.574;9.976;2023-07-13T13:14:22;18.30;99.90
14749;DHT22;7466;53.574;9.976;2023-07-13T13:16:50;18.20;99.90
14749;DHT22;7466;53.574;9.976;2023-07-13T13:19:20;18.30;99.90
14749;DHT22;7466;53.574;9.976;2023-07-13T13:21:48;18.40;99.90
14749;DHT22;7466;53.574;9.976;2023-07-13T13:24:23;18.70;99.90
14749;DHT22;7466;53.574;9.976;2023-07-13T13:26:51;18.70;99.90
14749;DHT22;7466;53.574;9.976;2023-07-13T13:29:20;19.30;99.90
14749;DHT22;7466;53.574;9.976;2023-07-13T13:31:49;19.90;99.90
14749;DHT22;7466;53.574;9.976;2023-07-13T13:34:17;20.00;99.90
14749;DHT22;7466;53.574;9.976;2023-07-13T13:36:46;20.00;99.90
14749;DHT22;7466;53.574;9.976;2023-07-13T13:39:21;19.80;99.90
14749;DHT22;7466;53.574;9.976;2023-07-13T13:41:49;19.90;99.90
14749;DHT22;7466;53.574;9.976;2023-07-13T13:44:16;19.70;99.90
14749;DHT22;7466;53.574;9.976;2023-07-13T13:46:45;20.10;99.90
14749;DHT22;7466;53.574;9.976;2023-07-13T13:49:15;20.00;99.90
14749;DHT22;7466;53.574;9.976;2023-07-13T13:51:42;20.10;99.90
14749;DHT22;7466;53.574;9.976;2023-07-13T13:54:12;20.20;99.90
14749;DHT22;7466;53.574;9.976;2023-07-13T13:56:41;20.20;99.90
14749;DHT22;7466;53.574;9.976;2023-07-13T13:59:08;20.50;99.90
14749;DHT22;7466;53.574;9.976;2023-07-13T14:01:35;20.20;99.90
14749;DHT22;7466;53.574;9.976;2023-07-13T14:04:03;19.50;99.90
14749;DHT22;7466;53.574;9.976;2023-07-13T14:06:30;19.20;99.90
14749;DHT22;7466;53.574;9.976;2023-07-13T14:08:57;19.20;99.90
14749;DHT22;7466;53.574;9.976;2023-07-13T14:11:24;19.50;99.90
14749;DHT22;7466;53.574;9.976;2023-07-13T14:13:55;20.70;99.90
14749;DHT22;7466;53.574;9.976;2023-07-13T14:16:26;21.80;99.90
14749;DHT22;7466;53.574;9.976;2023-07-13T14:18:55;21.70;99.90
14749;DHT22;7466;53.574;9.976;2023-07-13T14:21:26;21.40;99.90
14749;DHT22;7466;53.574;9.976;2023-07-13T14:23:53;21.40;99.90
14749;DHT22;7466;53.574;9.976;2023-07-13T14:26:21;20.90;99.90
14749;DHT22;7466;53.574;9.976;2023-07-13T14:28:50;20.30;99.90
14749;DHT22;7466;53.574;9.976;2023-07-13T14:31:20;20.20;99.90
14749;DHT22;7466;53.574;9.976;2023-07-13T14:33:47;19.70;99.90
14749;DHT22;7466;53.574;9.976;2023-07-13T14:36:21;20.10;99.90
14749;DHT22;7466;53.574;9.976;2023-07-13T14:38:50;22.30;99.90
14749;DHT22;7466;53.574;9.976;2023-07-13T14:41:16;23.30;99.90
14749;DHT22;7466;53.574;9.976;2023-07-13T14:43:43;22.80;99.90
14749;DHT22;7466;53.574;9.976;2023-07-13T14:46:21;22.00;99.90
14749;DHT22;7466;53.574;9.976;2023-07-13T14:48:51;20.90;99.90
14749;DHT22;7466;53.574;9.976;2023-07-13T14:51:18;20.70;99.90
14749;DHT22;7466;53.574;9.976;2023-07-13T14:53:44;20.20;99.90
14749;DHT22;7466;53.574;9.976;2023-07-13T14:56:11;19.90;99.90
14749;DHT22;7466;53.574;9.976;2023-07-13T14:58:38;19.60;99.90
14749;DHT22;7466;53.574;9.976;2023-07-13T15:01:09;19.50;99.90
14749;DHT22;7466;53.574;9.976;2023-07-13T15:03:44;19.30;99.90
14749;DHT22;7466;53.574;9.976;2023-07-13T15:06:12;19.50;99.90
14749;DHT22;7466;53.574;9.976;2023-07-13T15:08:39;19.80;99.90
14749;DHT22;7466;53.574;9.976;2023-07-13T15:11:07;19.90;99.90
14749;DHT22;7466;53.574;9.976;2023-07-13T15:13:34;20.20;99.90
14749;DHT22;7466;53.574;9.976;2023-07-13T15:16:01;21.60;99.90
14749;DHT22;7466;53.574;9.976;2023-07-13T15:18:30;22.00;99.90
14749;DHT22;7466;53.574;9.976;2023-07-13T15:20:59;21.00;99.90
14749;DHT22;7466;53.574;9.976;2023-07-13T15:23:29;20.70;99.90
14749;DHT22;7466;53.574;9.976;2023-07-13T15:25:55;20.70;99.90
14749;DHT22;7466;53.574;9.976;2023-07-13T15:28:22;20.20;99.90
14749;DHT22;7466;53.574;9.976;2023-07-13T15:30:49;19.90;99.90
14749;DHT22;7466;53.574;9.976;2023-07-13T15:33:19;19.80;99.90
14749;DHT22;7466;53.574;9.976;2023-07-13T15:35:47;19.80;99.90
14749;DHT22;7466;53.574;9.976;2023-07-13T15:38:19;20.00;99.90
14749;DHT22;7466;53.574;9.976;2023-07-13T15:40:47;20.10;99.90
14749;DHT22;7466;53.574;9.976;2023-07-13T15:43:15;20.00;99.90
14749;DHT22;7466;53.574;9.976;2023-07-13T15:45:43;20.40;99.90
14749;DHT22;7466;53.574;9.976;2023-07-13T15:48:17;20.60;99.90
14749;DHT22;7466;53.574;9.976;2023-07-13T15:50:52;20.60;99.90
14749;DHT22;7466;53.574;9.976;2023-07-13T15:53:23;20.50;99.90
14749;DHT22;7466;53.574;9.976;2023-07-13T15:55:50;20.70;99.90
14749;DHT22;7466;53.574;9.976;2023-07-13T15:58:18;22.30;99.90